createdAt,value
2017-11-13T00:01:51.930Z,12.30
2017-11-13T00:04:18.217Z,12.17
2017-11-13T00:06:44.487Z,12.43
2017-11-13T00:09:10.868Z,12.03
2017-11-13T00:11:37.153Z,11.90
2017-11-13T00:14:03.435Z,12.43
2017-11-13T00:16:30.434Z,13.17
2017-11-13T00:18:56.663Z,12.40
2017-11-13T00:21:23.008Z,12.70
2017-11-13T00:23:49.201Z,12.43
2017-11-13T00:26:15.494Z,12.67
2017-11-13T00:28:41.760Z,13.00
2017-11-13T00:31:08.054Z,13.70
2017-11-13T00:33:34.313Z,16.20
2017-11-13T00:36:00.515Z,14.60
2017-11-13T00:38:26.803Z,15.80
2017-11-13T00:40:52.983Z,17.57
2017-11-13T00:43:19.217Z,16.30
2017-11-13T00:45:45.464Z,17.30
2017-11-13T00:48:11.731Z,15.80
2017-11-13T00:50:37.963Z,14.77
2017-11-13T00:53:04.245Z,15.20
2017-11-13T00:55:30.540Z,14.97
2017-11-13T00:57:56.845Z,13.50
2017-11-13T01:00:23.116Z,14.00
2017-11-13T01:02:50.196Z,14.80
2017-11-13T01:05:16.454Z,14.10
2017-11-13T01:07:42.695Z,14.23
2017-11-13T01:10:09.076Z,13.03
2017-11-13T01:12:35.452Z,15.13
2017-11-13T01:15:01.750Z,14.43
2017-11-13T01:17:27.999Z,13.90
2017-11-13T01:19:54.284Z,14.23
2017-11-13T01:22:20.537Z,13.20
2017-11-13T01:24:46.820Z,13.23
2017-11-13T01:27:13.051Z,15.37
2017-11-13T01:29:39.364Z,13.30
2017-11-13T01:32:05.611Z,13.37
2017-11-13T01:34:31.854Z,15.67
2017-11-13T01:36:58.067Z,13.37
2017-11-13T01:39:25.055Z,14.63
2017-11-13T01:41:51.308Z,14.67
2017-11-13T01:44:19.261Z,13.80
2017-11-13T01:46:45.564Z,14.20
2017-11-13T01:49:11.824Z,13.97
2017-11-13T01:51:38.121Z,15.47
2017-11-13T01:54:04.381Z,14.70
2017-11-13T01:56:30.676Z,15.60
2017-11-13T01:58:57.077Z,15.07
2017-11-13T02:01:23.318Z,16.17
2017-11-13T02:03:49.578Z,16.10
2017-11-13T02:06:15.907Z,15.53
2017-11-13T02:08:42.169Z,16.70
2017-11-13T02:11:08.413Z,15.00
2017-11-13T02:13:34.693Z,13.30
2017-11-13T02:16:01.759Z,15.17
2017-11-13T02:18:27.998Z,14.73
2017-11-13T02:20:54.247Z,14.23
2017-11-13T02:23:20.609Z,15.03
2017-11-13T02:25:46.931Z,14.20
2017-11-13T02:28:13.154Z,15.40
2017-11-13T02:30:40.204Z,15.07
2017-11-13T02:33:06.575Z,15.10
2017-11-13T02:35:32.829Z,15.40
2017-11-13T02:37:59.087Z,15.93
2017-11-13T02:40:25.418Z,14.07
2017-11-13T02:42:51.694Z,14.00
2017-11-13T02:45:18.219Z,14.67
2017-11-13T02:47:44.591Z,15.40
2017-11-13T02:50:10.984Z,13.67
2017-11-13T02:52:37.211Z,13.10
2017-11-13T02:55:03.636Z,12.33
2017-11-13T02:57:30.654Z,11.83
2017-11-13T02:59:56.962Z,12.63
2017-11-13T03:02:23.348Z,12.80
2017-11-13T03:04:49.617Z,14.97
2017-11-13T03:07:15.838Z,15.33
2017-11-13T03:09:42.991Z,15.50
2017-11-13T03:12:09.251Z,12.57
2017-11-13T03:14:35.761Z,12.13
2017-11-13T03:17:02.083Z,12.87
2017-11-13T03:19:29.256Z,15.00
2017-11-13T03:21:56.307Z,13.40
2017-11-13T03:24:22.660Z,13.50
2017-11-13T03:26:48.892Z,13.60
2017-11-13T03:29:15.186Z,14.03
2017-11-13T03:31:41.470Z,12.73
2017-11-13T03:34:07.699Z,12.30
2017-11-13T03:36:33.910Z,13.13
2017-11-13T03:39:00.183Z,11.93
2017-11-13T03:41:26.603Z,10.60
2017-11-13T03:43:53.582Z,11.07
2017-11-13T03:46:19.796Z,9.27
2017-11-13T03:48:46.097Z,10.00
2017-11-13T03:51:12.399Z,7.20
2017-11-13T03:53:38.628Z,6.93
2017-11-13T03:56:04.953Z,7.13
2017-11-13T03:58:31.187Z,5.30
2017-11-13T04:00:57.456Z,5.00
2017-11-13T04:03:23.707Z,5.20
2017-11-13T04:05:50.018Z,5.93
2017-11-13T04:08:16.231Z,5.63
2017-11-13T04:10:42.512Z,6.07
2017-11-13T04:13:08.855Z,5.97
2017-11-13T04:15:35.117Z,6.90
2017-11-13T04:18:01.318Z,7.27
2017-11-13T04:20:28.510Z,8.53
2017-11-13T04:22:54.720Z,8.13
2017-11-13T04:25:20.948Z,8.17
2017-11-13T04:27:47.255Z,9.57
2017-11-13T04:30:13.462Z,9.43
2017-11-13T04:32:39.707Z,8.97
2017-11-13T04:35:05.949Z,8.47
2017-11-13T04:37:32.726Z,8.00
2017-11-13T04:39:58.936Z,9.10
2017-11-13T04:42:25.257Z,9.20
2017-11-13T04:44:51.702Z,9.00
2017-11-13T04:47:17.941Z,8.63
2017-11-13T04:49:44.181Z,9.37
2017-11-13T04:52:10.553Z,9.83
2017-11-13T04:54:36.813Z,11.03
2017-11-13T04:57:03.055Z,10.60
2017-11-13T04:59:29.260Z,10.80
2017-11-13T05:01:55.536Z,11.97
2017-11-13T05:04:21.797Z,11.73
2017-11-13T05:06:48.031Z,9.77
2017-11-13T05:09:14.366Z,11.30
2017-11-13T05:11:40.622Z,10.37
2017-11-13T05:14:06.933Z,10.60
2017-11-13T05:16:33.176Z,11.83
2017-11-13T05:18:59.403Z,12.60
2017-11-13T05:21:25.695Z,14.23
2017-11-13T05:23:51.959Z,12.00
2017-11-13T05:26:18.194Z,11.10
2017-11-13T05:28:44.550Z,12.80
2017-11-13T05:31:11.580Z,12.80
2017-11-13T05:33:37.799Z,13.50
2017-11-13T05:36:04.213Z,14.40
2017-11-13T05:38:30.493Z,13.73
2017-11-13T05:40:56.757Z,15.50
2017-11-13T05:43:23.034Z,13.13
2017-11-13T05:45:49.351Z,13.60
2017-11-13T05:48:15.608Z,14.93
2017-11-13T05:50:42.126Z,14.73
2017-11-13T05:53:08.431Z,13.60
2017-11-13T05:55:35.999Z,13.93
2017-11-13T05:58:02.439Z,13.70
2017-11-13T06:00:32.686Z,16.10
2017-11-13T06:02:59.186Z,15.13
2017-11-13T06:05:40.349Z,16.00
2017-11-13T06:08:06.767Z,14.97
2017-11-13T06:10:32.982Z,14.60
2017-11-13T06:12:59.213Z,14.67
2017-11-13T06:15:25.499Z,15.20
2017-11-13T06:17:52.465Z,15.53
2017-11-13T06:20:18.674Z,16.63
2017-11-13T06:22:44.942Z,15.83
2017-11-13T06:25:11.218Z,18.73
2017-11-13T06:27:37.394Z,16.80
2017-11-13T06:30:03.642Z,16.23
2017-11-13T06:32:29.923Z,17.40
2017-11-13T06:34:56.217Z,18.47
2017-11-13T06:37:23.131Z,17.10
2017-11-13T06:39:49.400Z,19.87
2017-11-13T06:42:16.485Z,19.40
2017-11-13T06:44:42.736Z,19.50
2017-11-13T06:47:09.018Z,18.87
2017-11-13T06:49:35.210Z,18.07
2017-11-13T06:52:01.440Z,17.50
2017-11-13T06:54:27.663Z,17.37
2017-11-13T06:56:53.860Z,17.70
2017-11-13T06:59:20.112Z,16.10
2017-11-13T07:01:46.278Z,15.23
2017-11-13T07:04:12.477Z,15.47
2017-11-13T07:06:38.686Z,15.90
2017-11-13T07:09:04.858Z,14.43
2017-11-13T07:11:31.099Z,15.13
2017-11-13T07:13:57.305Z,16.30
2017-11-13T07:16:23.514Z,15.80
2017-11-13T07:18:49.786Z,14.00
2017-11-13T07:21:15.993Z,15.00
2017-11-13T07:23:42.189Z,14.83
2017-11-13T07:26:09.433Z,15.07
2017-11-13T07:28:35.632Z,15.73
2017-11-13T07:31:01.918Z,16.57
2017-11-13T07:33:28.221Z,16.23
2017-11-13T07:35:54.521Z,15.70
2017-11-13T07:38:20.831Z,15.70
2017-11-13T07:40:48.468Z,16.33
2017-11-13T07:43:14.723Z,16.70
2017-11-13T07:45:40.941Z,15.67
2017-11-13T07:48:07.178Z,16.27
2017-11-13T07:50:33.404Z,15.60
2017-11-13T07:52:59.631Z,16.20
2017-11-13T07:55:25.899Z,14.37
2017-11-13T07:57:52.131Z,14.83
2017-11-13T08:00:18.431Z,15.17
2017-11-13T08:02:50.728Z,13.50
2017-11-13T08:05:16.936Z,15.80
2017-11-13T08:07:43.153Z,14.87
2017-11-13T08:10:09.418Z,18.50
2017-11-13T08:12:35.674Z,15.63
2017-11-13T08:15:01.883Z,16.07
2017-11-13T08:17:28.192Z,15.43
2017-11-13T08:19:54.483Z,16.90
2017-11-13T08:22:20.778Z,14.27
2017-11-13T08:24:47.250Z,17.33
2017-11-13T08:27:13.522Z,16.50
2017-11-13T08:29:39.756Z,16.30
2017-11-13T08:32:05.978Z,18.97
2017-11-13T08:34:32.250Z,16.83
2017-11-13T08:36:58.537Z,16.87
2017-11-13T08:39:24.835Z,14.30
2017-11-13T08:41:51.063Z,12.60
2017-11-13T08:44:17.325Z,9.67
2017-11-13T08:46:43.578Z,10.07
2017-11-13T08:49:09.855Z,9.80
2017-11-13T08:51:36.208Z,9.83
2017-11-13T08:54:02.518Z,11.80
2017-11-13T08:56:28.756Z,10.97
2017-11-13T08:58:55.718Z,8.63
2017-11-13T09:01:21.963Z,9.13
2017-11-13T09:03:48.195Z,7.80
2017-11-13T09:06:14.421Z,7.70
2017-11-13T09:08:40.613Z,7.90
2017-11-13T09:11:06.879Z,7.20
2017-11-13T09:13:33.158Z,6.90
2017-11-13T09:15:59.430Z,6.23
2017-11-13T09:18:25.711Z,5.27
2017-11-13T09:20:52.824Z,5.17
2017-11-13T09:23:19.060Z,4.00
2017-11-13T09:25:46.152Z,4.43
2017-11-13T09:28:12.439Z,3.83
2017-11-13T09:30:38.673Z,4.10
2017-11-13T09:33:04.953Z,5.17
2017-11-13T09:35:31.210Z,4.40
2017-11-13T09:37:57.458Z,4.00
2017-11-13T09:40:24.450Z,4.17
2017-11-13T09:42:50.766Z,5.20
2017-11-13T09:45:17.039Z,4.50
2017-11-13T09:47:43.354Z,5.33
2017-11-13T09:50:09.575Z,5.47
2017-11-13T09:52:35.870Z,3.80
2017-11-13T09:55:02.958Z,4.30
2017-11-13T09:57:29.270Z,3.90
2017-11-13T09:59:55.593Z,4.43
2017-11-13T10:02:21.844Z,4.67
2017-11-13T10:04:48.104Z,5.30
2017-11-13T10:07:14.376Z,3.30
2017-11-13T10:09:41.412Z,3.33
2017-11-13T10:12:09.242Z,3.67
2017-11-13T10:14:35.513Z,3.70
2017-11-13T10:17:01.767Z,3.50
2017-11-13T10:19:28.043Z,3.90
2017-11-13T10:21:54.368Z,3.60
2017-11-13T10:24:20.662Z,2.97
2017-11-13T10:26:46.929Z,3.67
2017-11-13T10:29:13.215Z,3.27
2017-11-13T10:31:40.276Z,3.37
2017-11-13T10:34:06.510Z,3.10
2017-11-13T10:36:33.502Z,3.10
2017-11-13T10:38:59.736Z,4.57
2017-11-13T10:41:25.944Z,3.40
2017-11-13T10:43:52.185Z,3.07
2017-11-13T10:46:19.251Z,3.67
2017-11-13T10:48:45.469Z,4.70
2017-11-13T10:51:11.764Z,4.53
2017-11-13T10:53:38.106Z,4.83
2017-11-13T10:56:04.314Z,3.57
2017-11-13T10:58:30.538Z,3.17
2017-11-13T11:00:56.783Z,2.90
2017-11-13T11:03:23.019Z,3.20
2017-11-13T11:05:49.281Z,3.63
2017-11-13T11:08:15.603Z,3.13
2017-11-13T11:10:41.945Z,4.50
2017-11-13T11:13:08.197Z,3.83
2017-11-13T11:15:40.351Z,3.50
2017-11-13T11:18:09.588Z,3.43
2017-11-13T11:23:44.701Z,2.60
2017-11-13T11:26:18.050Z,3.30
2017-11-13T11:28:54.975Z,2.80
2017-11-13T11:31:21.948Z,3.27
2017-11-13T11:33:54.246Z,3.03
2017-11-13T11:39:36.961Z,3.90
2017-11-13T11:42:03.240Z,3.67
2017-11-13T11:44:34.324Z,4.00
2017-11-13T11:47:00.616Z,3.20
2017-11-13T11:49:32.695Z,2.83
2017-11-13T11:51:58.966Z,2.93
2017-11-13T11:54:25.278Z,2.60
2017-11-13T11:56:54.444Z,2.50
2017-11-13T11:59:20.822Z,2.50
2017-11-13T12:01:47.106Z,2.40
2017-11-13T12:04:13.358Z,2.60
2017-11-13T12:06:40.015Z,2.20
2017-11-13T12:09:06.287Z,3.17
2017-11-13T12:11:32.695Z,2.53
2017-11-13T12:13:58.947Z,2.80
2017-11-13T12:16:25.177Z,2.50
2017-11-13T12:18:52.218Z,2.70
2017-11-13T12:21:19.228Z,2.57
2017-11-13T12:23:45.426Z,2.47
2017-11-13T12:26:12.023Z,2.33
2017-11-13T12:28:38.192Z,2.07
2017-11-13T12:31:04.481Z,2.50
2017-11-13T12:33:30.672Z,2.33
2017-11-13T12:35:56.880Z,2.40
2017-11-13T12:38:23.316Z,2.40
2017-11-13T12:40:49.849Z,2.10
2017-11-13T12:43:16.090Z,2.30
2017-11-13T12:45:42.338Z,1.77
2017-11-13T12:48:08.566Z,2.27
2017-11-13T12:50:34.745Z,2.37
2017-11-13T12:53:00.992Z,2.10
2017-11-13T12:55:27.207Z,2.07
2017-11-13T12:57:53.590Z,2.13
2017-11-13T13:00:20.988Z,1.60
2017-11-13T13:02:47.613Z,2.30
2017-11-13T13:05:13.945Z,2.37
2017-11-13T13:07:40.611Z,2.07
2017-11-13T13:10:06.979Z,2.40
2017-11-13T13:12:33.235Z,1.90
2017-11-13T13:15:00.230Z,1.90
2017-11-13T13:17:26.515Z,3.67
2017-11-13T13:19:52.766Z,2.63
2017-11-13T13:22:19.066Z,1.87
2017-11-13T13:24:45.306Z,2.40
2017-11-13T13:27:11.565Z,2.50
2017-11-13T13:29:37.837Z,1.80
2017-11-13T13:32:04.266Z,2.00
2017-11-13T13:34:30.543Z,1.80
2017-11-13T13:36:56.758Z,1.73
2017-11-13T13:39:23.020Z,2.10
2017-11-13T13:41:50.021Z,2.27
2017-11-13T13:44:16.301Z,2.10
2017-11-13T13:46:42.513Z,1.90
2017-11-13T13:49:08.745Z,1.97
2017-11-13T13:51:34.955Z,1.40
2017-11-13T13:54:01.174Z,1.50
2017-11-13T13:56:27.386Z,1.73
2017-11-13T13:58:53.606Z,2.47
2017-11-13T14:01:19.825Z,2.50
2017-11-13T14:03:46.060Z,5.60
2017-11-13T14:06:12.347Z,5.73
2017-11-13T14:08:38.549Z,4.40
2017-11-13T14:11:05.037Z,5.03
2017-11-13T14:13:31.282Z,4.73
2017-11-13T14:15:57.538Z,2.90
2017-11-13T14:18:23.738Z,1.77
2017-11-13T14:20:50.057Z,1.80
2017-11-13T14:23:16.328Z,1.97
2017-11-13T14:25:42.558Z,2.00
2017-11-13T14:28:08.943Z,1.50
2017-11-13T14:30:35.156Z,1.70
2017-11-13T14:33:02.124Z,1.20
2017-11-13T14:35:28.319Z,1.90
2017-11-13T14:37:54.812Z,1.90
2017-11-13T14:40:21.004Z,1.70
2017-11-13T14:42:47.289Z,1.73
2017-11-13T14:45:13.618Z,3.00
2017-11-13T14:47:40.199Z,2.73
2017-11-13T14:50:07.730Z,4.13
2017-11-13T14:52:33.958Z,2.70
2017-11-13T14:55:00.246Z,1.67
2017-11-13T14:57:26.501Z,3.07
2017-11-13T14:59:52.758Z,2.00
2017-11-13T15:02:19.068Z,2.20
2017-11-13T15:04:46.105Z,1.90
2017-11-13T15:07:12.461Z,1.67
2017-11-13T15:09:38.724Z,3.07
2017-11-13T15:12:04.992Z,2.27
2017-11-13T15:14:31.334Z,3.10
2017-11-13T15:16:57.559Z,2.03
2017-11-13T15:19:23.823Z,1.47
2017-11-13T15:21:50.032Z,2.47
2017-11-13T15:24:17.011Z,2.10
2017-11-13T15:26:43.210Z,2.33
2017-11-13T15:29:09.485Z,3.53
2017-11-13T15:31:36.623Z,2.30
2017-11-13T15:34:02.919Z,2.90
2017-11-13T15:36:29.311Z,2.30
2017-11-13T15:38:55.531Z,1.80
2017-11-13T15:41:21.803Z,3.63
2017-11-13T15:43:48.023Z,2.23
2017-11-13T15:46:14.286Z,2.60
2017-11-13T15:48:40.625Z,2.30
2017-11-13T15:51:06.911Z,2.40
2017-11-13T15:53:33.247Z,2.60
2017-11-13T15:56:00.248Z,2.10
2017-11-13T15:58:26.588Z,5.50
2017-11-13T16:00:52.781Z,7.53
2017-11-13T16:03:18.995Z,3.70
2017-11-13T16:05:45.195Z,3.70
2017-11-13T16:08:11.449Z,4.03
2017-11-13T16:10:39.060Z,3.33
2017-11-13T16:13:05.505Z,2.23
2017-11-13T16:15:32.539Z,2.90
2017-11-13T16:17:59.521Z,3.60
2017-11-13T16:20:25.857Z,2.80
2017-11-13T16:22:52.162Z,2.60
2017-11-13T16:25:18.342Z,3.13
2017-11-13T16:27:45.890Z,24.23
2017-11-13T16:30:12.162Z,3.00
2017-11-13T16:32:38.620Z,2.50
2017-11-13T16:35:04.919Z,2.83
2017-11-13T16:37:31.221Z,3.17
2017-11-13T16:39:57.477Z,2.87
2017-11-13T16:42:23.727Z,3.63
2017-11-13T16:44:50.000Z,4.33
2017-11-13T16:47:16.277Z,3.43
2017-11-13T16:49:42.559Z,28.10
2017-11-13T16:52:08.797Z,4.00
2017-11-13T16:54:35.069Z,10.00
2017-11-13T16:57:01.310Z,5.73
2017-11-13T16:59:27.567Z,6.43
2017-11-13T17:01:53.802Z,3.80
2017-11-13T17:04:20.024Z,6.43
2017-11-13T17:06:46.330Z,4.17
2017-11-13T17:09:12.605Z,4.07
2017-11-13T17:11:39.571Z,3.30
2017-11-13T17:14:06.067Z,3.23
2017-11-13T17:16:32.262Z,3.53
2017-11-13T17:18:58.470Z,3.97
2017-11-13T17:21:25.218Z,7.60
2017-11-13T17:23:52.600Z,4.40
2017-11-13T17:26:18.850Z,4.67
2017-11-13T17:28:45.078Z,4.83
2017-11-13T17:31:12.070Z,6.00
2017-11-13T17:33:39.854Z,6.20
2017-11-13T17:36:06.679Z,7.30
2017-11-13T17:38:32.985Z,8.10
2017-11-13T17:41:00.243Z,8.87
2017-11-13T17:43:27.188Z,7.47
2017-11-13T17:45:54.168Z,6.27
2017-11-13T17:48:20.407Z,6.93
2017-11-13T17:50:46.611Z,15.57
2017-11-13T17:53:13.662Z,5.00
2017-11-13T17:55:40.676Z,5.10
2017-11-13T17:58:06.939Z,5.10
2017-11-13T18:00:33.211Z,4.93
2017-11-13T18:02:59.417Z,18.37
2017-11-13T18:05:26.135Z,7.50
2017-11-13T18:07:52.590Z,10.93
2017-11-13T18:10:18.864Z,5.27
2017-11-13T18:12:45.163Z,3.97
2017-11-13T18:15:11.865Z,5.77
2017-11-13T18:17:38.382Z,5.40
2017-11-13T18:20:04.876Z,4.73
2017-11-13T18:22:31.147Z,4.90
2017-11-13T18:24:57.661Z,5.53
2017-11-13T18:27:24.011Z,4.77
2017-11-13T18:29:51.379Z,4.73
2017-11-13T18:32:17.748Z,4.10
2017-11-13T18:34:44.066Z,5.17
2017-11-13T18:37:10.751Z,17.70
2017-11-13T18:39:37.036Z,9.00
2017-11-13T18:42:03.339Z,26.17
2017-11-13T18:44:29.683Z,5.07
2017-11-13T18:46:55.988Z,6.70
2017-11-13T18:49:22.252Z,7.60
2017-11-13T18:51:48.512Z,9.23
2017-11-13T18:54:15.569Z,7.23
2017-11-13T18:56:41.860Z,5.97
2017-11-13T18:59:08.104Z,5.30
2017-11-13T19:01:34.343Z,6.40
2017-11-13T19:04:00.623Z,7.30
2017-11-13T19:06:27.050Z,6.50
2017-11-13T19:08:53.335Z,12.93
2017-11-13T19:11:20.384Z,7.93
2017-11-13T19:13:46.659Z,6.33
2017-11-13T19:16:13.983Z,8.57
2017-11-13T19:18:40.481Z,9.43
2017-11-13T19:21:06.774Z,7.63
2017-11-13T19:23:39.155Z,7.07
2017-11-13T19:26:06.249Z,7.00
2017-11-13T19:28:33.223Z,9.40
2017-11-13T19:30:59.523Z,8.07
2017-11-13T19:33:25.948Z,8.47
2017-11-13T19:35:52.292Z,8.37
2017-11-13T19:38:18.625Z,7.90
2017-11-13T19:40:44.913Z,8.13
2017-11-13T19:43:11.174Z,8.50
2017-11-13T19:45:38.113Z,9.07
2017-11-13T19:48:04.367Z,8.10
2017-11-13T19:50:30.816Z,9.20
2017-11-13T19:52:57.113Z,9.30
2017-11-13T19:55:23.404Z,9.13
2017-11-13T19:57:50.674Z,8.60
2017-11-13T20:00:17.171Z,9.10
2017-11-13T20:02:43.400Z,9.00
2017-11-13T20:05:09.675Z,8.80
2017-11-13T20:07:35.959Z,8.33
2017-11-13T20:10:02.223Z,10.80
2017-11-13T20:12:28.880Z,9.00
2017-11-13T20:14:55.112Z,10.40
2017-11-13T20:17:22.257Z,7.93
2017-11-13T20:19:48.671Z,8.87
2017-11-13T20:22:14.929Z,7.90
2017-11-13T20:24:41.189Z,8.67
2017-11-13T20:27:08.480Z,8.30
2017-11-13T20:29:34.871Z,9.10
2017-11-13T20:32:01.265Z,10.07
2017-11-13T20:34:27.669Z,10.27
2017-11-13T20:36:54.169Z,9.50
2017-11-13T20:39:20.450Z,9.80
2017-11-13T20:41:46.740Z,9.70
2017-11-13T20:44:13.032Z,10.13
2017-11-13T20:46:39.288Z,9.63
2017-11-13T20:49:05.683Z,10.13
2017-11-13T20:51:32.673Z,9.53
2017-11-13T20:53:59.319Z,10.47
2017-11-13T20:56:25.642Z,10.10
2017-11-13T20:58:52.694Z,12.30
2017-11-13T21:01:18.967Z,11.97
2017-11-13T21:03:45.292Z,13.53
2017-11-13T21:06:11.550Z,13.23
2017-11-13T21:08:38.090Z,13.00
2017-11-13T21:11:04.404Z,13.10
2017-11-13T21:13:30.820Z,14.70
2017-11-13T21:15:57.660Z,13.20
2017-11-13T21:18:24.726Z,13.43
2017-11-13T21:20:50.966Z,13.60
2017-11-13T21:23:17.949Z,13.03
2017-11-13T21:25:44.233Z,11.33
2017-11-13T21:28:10.749Z,35.63
2017-11-13T21:30:37.356Z,11.70
2017-11-13T21:33:03.638Z,10.20
2017-11-13T21:35:29.928Z,10.80
2017-11-13T21:37:56.229Z,11.10
2017-11-13T21:40:22.527Z,9.97
2017-11-13T21:42:48.754Z,9.33
2017-11-13T21:45:15.043Z,10.00
2017-11-13T21:47:42.078Z,10.07
2017-11-13T21:50:09.074Z,9.07
2017-11-13T21:52:39.258Z,9.10
2017-11-13T21:55:05.493Z,8.90
2017-11-13T21:57:31.707Z,8.43
2017-11-13T21:59:57.954Z,11.27
2017-11-13T22:02:24.174Z,11.60
2017-11-13T22:04:50.681Z,8.83
2017-11-13T22:07:17.678Z,10.77
2017-11-13T22:09:44.165Z,10.47
2017-11-13T22:12:10.454Z,9.50
2017-11-13T22:14:37.459Z,9.70
2017-11-13T22:17:03.704Z,9.00
2017-11-13T22:19:29.950Z,7.63
2017-11-13T22:21:56.204Z,9.03
2017-11-13T22:24:22.429Z,8.23
2017-11-13T22:26:48.622Z,8.30
2017-11-13T22:29:14.869Z,11.30
2017-11-13T22:31:41.795Z,10.90
2017-11-13T22:34:08.803Z,10.30
2017-11-13T22:36:35.100Z,9.27
2017-11-13T22:39:01.328Z,8.70
2017-11-13T22:41:27.604Z,8.07
2017-11-13T22:43:53.859Z,8.47
2017-11-13T22:46:20.840Z,8.93
2017-11-13T22:48:47.059Z,7.30
2017-11-13T22:51:13.398Z,9.20
2017-11-13T22:53:39.633Z,8.20
2017-11-13T22:56:05.842Z,8.77
2017-11-13T22:58:32.064Z,8.67
2017-11-13T23:00:58.265Z,8.57
2017-11-13T23:03:24.502Z,8.80
2017-11-13T23:05:50.733Z,8.60
2017-11-13T23:08:16.927Z,8.83
2017-11-13T23:10:43.283Z,9.80
2017-11-13T23:13:09.483Z,9.47
2017-11-13T23:15:35.659Z,10.13
2017-11-13T23:18:01.944Z,10.00
2017-11-13T23:20:28.557Z,9.83
2017-11-13T23:22:54.811Z,8.50
2017-11-13T23:25:21.029Z,9.63
2017-11-13T23:27:47.250Z,10.10
2017-11-13T23:30:13.430Z,9.30
2017-11-13T23:32:39.633Z,8.57
2017-11-13T23:35:05.852Z,10.27
2017-11-13T23:37:32.053Z,9.10
2017-11-13T23:39:58.282Z,9.10
2017-11-13T23:42:24.537Z,10.17
2017-11-13T23:44:51.525Z,10.27
2017-11-13T23:47:17.763Z,9.67
2017-11-13T23:49:43.981Z,9.77
2017-11-13T23:52:10.307Z,9.50
2017-11-13T23:54:36.498Z,10.50
2017-11-13T23:57:02.725Z,9.77
2017-11-13T23:59:28.926Z,9.40
